sensor_id;sensor_type;location;lat;lon;timestamp;temperature;humidity
37528;DHT22;23372;52.050;4.810;2022-09-24T00:01:17;14.10;99.90
37528;DHT22;23372;52.050;4.810;2022-09-24T00:03:48;14.20;99.90
37528;DHT22;23372;52.050;4.810;2022-09-24T00:06:14;14.20;99.90
37528;DHT22;23372;52.050;4.810;2022-09-24T00:08:43;14.20;99.90
37528;DHT22;23372;52.050;4.810;2022-09-24T00:11:09;14.10;99.90
37528;DHT22;23372;52.050;4.810;2022-09-24T00:13:36;14.10;99.90
37528;DHT22;23372;52.050;4.810;2022-09-24T00:16:22;14.20;99.90
37528;DHT22;23372;52.050;4.810;2022-09-24T00:18:47;14.10;99.90
37528;DHT22;23372;52.050;4.810;2022-09-24T00:21:19;14.10;99.90
37528;DHT22;23372;52.050;4.810;2022-09-24T00:23:52;14.20;99.90
37528;DHT22;23372;52.050;4.810;2022-09-24T00:26:19;14.10;99.90
37528;DHT22;23372;52.050;4.810;2022-09-24T00:29:03;14.20;99.90
37528;DHT22;23372;52.050;4.810;2022-09-24T00:31:28;14.30;99.90
37528;DHT22;23372;52.050;4.810;2022-09-24T00:33:54;14.30;99.90
37528;DHT22;23372;52.050;4.810;2022-09-24T00:36:21;14.30;99.90
37528;DHT22;23372;52.050;4.810;2022-09-24T00:38:52;14.20;99.90
37528;DHT22;23372;52.050;4.810;2022-09-24T00:41:19;14.30;99.90
37528;DHT22;23372;52.050;4.810;2022-09-24T00:43:47;14.20;99.90
37528;DHT22;23372;52.050;4.810;2022-09-24T00:46:14;14.20;99.90
37528;DHT22;23372;52.050;4.810;2022-09-24T00:48:42;14.20;99.90
37528;DHT22;23372;52.050;4.810;2022-09-24T00:51:10;14.20;99.90
37528;DHT22;23372;52.050;4.810;2022-09-24T00:53:38;14.20;99.90
37528;DHT22;23372;52.050;4.810;2022-09-24T00:56:05;14.20;99.90
37528;DHT22;23372;52.050;4.810;2022-09-24T00:58:33;14.30;99.90
37528;DHT22;23372;52.050;4.810;2022-09-24T01:01:06;14.30;99.90
37528;DHT22;23372;52.050;4.810;2022-09-24T01:03:36;14.30;99.90
37528;DHT22;23372;52.050;4.810;2022-09-24T01:06:07;14.10;99.90
37528;DHT22;23372;52.050;4.810;2022-09-24T01:08:33;14.10;99.90
37528;DHT22;23372;52.050;4.810;2022-09-24T01:11:05;14.10;99.90
37528;DHT22;23372;52.050;4.810;2022-09-24T01:25:28;14.30;99.90
37528;DHT22;23372;52.050;4.810;2022-09-24T01:28:32;14.30;99.90
37528;DHT22;23372;52.050;4.810;2022-09-24T01:31:10;14.20;99.90
37528;DHT22;23372;52.050;4.810;2022-09-24T01:33:41;14.20;99.90
37528;DHT22;23372;52.050;4.810;2022-09-24T01:36:08;14.30;99.90
37528;DHT22;23372;52.050;4.810;2022-09-24T01:38:39;14.20;99.90
37528;DHT22;23372;52.050;4.810;2022-09-24T01:41:08;14.20;99.90
37528;DHT22;23372;52.050;4.810;2022-09-24T01:43:34;14.30;99.90
37528;DHT22;23372;52.050;4.810;2022-09-24T01:46:02;14.30;99.90
37528;DHT22;23372;52.050;4.810;2022-09-24T01:48:32;14.20;99.90
37528;DHT22;23372;52.050;4.810;2022-09-24T01:51:13;14.10;99.90
37528;DHT22;23372;52.050;4.810;2022-09-24T01:54:07;14.20;99.90
37528;DHT22;23372;52.050;4.810;2022-09-24T01:56:41;14.20;99.90
37528;DHT22;23372;52.050;4.810;2022-09-24T02:02:13;14.10;99.90
37528;DHT22;23372;52.050;4.810;2022-09-24T02:04:44;14.10;99.90
37528;DHT22;23372;52.050;4.810;2022-09-24T02:07:25;14.00;99.90
37528;DHT22;23372;52.050;4.810;2022-09-24T02:09:54;14.10;99.90
37528;DHT22;23372;52.050;4.810;2022-09-24T02:12:25;14.00;99.90
37528;DHT22;23372;52.050;4.810;2022-09-24T02:14:56;14.10;99.90
37528;DHT22;23372;52.050;4.810;2022-09-24T02:17:26;14.10;99.90
37528;DHT22;23372;52.050;4.810;2022-09-24T02:19:56;14.10;99.90
37528;DHT22;23372;52.050;4.810;2022-09-24T02:22:24;14.10;99.90
37528;DHT22;23372;52.050;4.810;2022-09-24T02:24:53;13.90;99.90
37528;DHT22;23372;52.050;4.810;2022-09-24T02:27:19;14.00;99.90
37528;DHT22;23372;52.050;4.810;2022-09-24T02:29:46;14.10;99.90
37528;DHT22;23372;52.050;4.810;2022-09-24T02:32:15;14.00;99.90
37528;DHT22;23372;52.050;4.810;2022-09-24T02:34:49;14.10;99.90
37528;DHT22;23372;52.050;4.810;2022-09-24T02:37:16;14.00;99.90
37528;DHT22;23372;52.050;4.810;2022-09-24T02:39:42;14.10;99.90
37528;DHT22;23372;52.050;4.810;2022-09-24T02:42:12;14.10;99.90
37528;DHT22;23372;52.050;4.810;2022-09-24T02:44:39;14.00;99.90
37528;DHT22;23372;52.050;4.810;2022-09-24T02:47:05;14.00;99.90
37528;DHT22;23372;52.050;4.810;2022-09-24T02:49:31;14.10;99.90
37528;DHT22;23372;52.050;4.810;2022-09-24T02:51:56;14.00;99.90
37528;DHT22;23372;52.050;4.810;2022-09-24T02:54:22;14.00;99.90
37528;DHT22;23372;52.050;4.810;2022-09-24T02:56:49;14.00;99.90
37528;DHT22;23372;52.050;4.810;2022-09-24T02:59:14;14.10;99.90
37528;DHT22;23372;52.050;4.810;2022-09-24T03:01:40;13.90;99.90
37528;DHT22;23372;52.050;4.810;2022-09-24T03:04:05;13.90;99.90
37528;DHT22;23372;52.050;4.810;2022-09-24T03:06:31;13.90;99.90
37528;DHT22;23372;52.050;4.810;2022-09-24T03:08:57;14.00;99.90
37528;DHT22;23372;52.050;4.810;2022-09-24T03:11:23;13.80;99.90
37528;DHT22;23372;52.050;4.810;2022-09-24T03:13:49;13.80;99.90
37528;DHT22;23372;52.050;4.810;2022-09-24T03:16:15;13.90;99.90
37528;DHT22;23372;52.050;4.810;2022-09-24T03:18:41;13.80;99.90
37528;DHT22;23372;52.050;4.810;2022-09-24T03:21:10;13.90;99.90
37528;DHT22;23372;52.050;4.810;2022-09-24T03:23:36;13.90;99.90
37528;DHT22;23372;52.050;4.810;2022-09-24T03:26:03;13.90;99.90
37528;DHT22;23372;52.050;4.810;2022-09-24T03:28:28;13.80;99.90
37528;DHT22;23372;52.050;4.810;2022-09-24T03:30:54;13.90;99.90
37528;DHT22;23372;52.050;4.810;2022-09-24T03:33:36;13.90;99.90
37528;DHT22;23372;52.050;4.810;2022-09-24T03:36:07;13.80;99.90
37528;DHT22;23372;52.050;4.810;2022-09-24T03:38:34;13.90;99.90
37528;DHT22;23372;52.050;4.810;2022-09-24T03:41:00;13.90;99.90
37528;DHT22;23372;52.050;4.810;2022-09-24T03:43:26;13.80;99.90
37528;DHT22;23372;52.050;4.810;2022-09-24T03:45:52;13.90;99.90
37528;DHT22;23372;52.050;4.810;2022-09-24T03:48:19;13.80;99.90
37528;DHT22;23372;52.050;4.810;2022-09-24T03:50:46;13.90;99.90
37528;DHT22;23372;52.050;4.810;2022-09-24T03:53:13;13.90;99.90
37528;DHT22;23372;52.050;4.810;2022-09-24T03:55:45;13.80;99.90
37528;DHT22;23372;52.050;4.810;2022-09-24T03:58:13;13.80;99.90
37528;DHT22;23372;52.050;4.810;2022-09-24T04:00:40;13.90;99.90
37528;DHT22;23372;52.050;4.810;2022-09-24T04:03:06;14.00;99.90
37528;DHT22;23372;52.050;4.810;2022-09-24T04:05:31;14.00;99.90
37528;DHT22;23372;52.050;4.810;2022-09-24T04:07:58;14.00;99.90
37528;DHT22;23372;52.050;4.810;2022-09-24T04:10:24;14.00;99.90
37528;DHT22;23372;52.050;4.810;2022-09-24T04:12:50;13.90;99.90
37528;DHT22;23372;52.050;4.810;2022-09-24T04:15:16;14.00;99.90
37528;DHT22;23372;52.050;4.810;2022-09-24T04:17:51;13.90;99.90
37528;DHT22;23372;52.050;4.810;2022-09-24T04:20:18;13.90;99.90
37528;DHT22;23372;52.050;4.810;2022-09-24T04:22:48;13.90;99.90
37528;DHT22;23372;52.050;4.810;2022-09-24T04:25:14;13.90;99.90
37528;DHT22;23372;52.050;4.810;2022-09-24T04:27:40;14.00;99.90
37528;DHT22;23372;52.050;4.810;2022-09-24T04:30:06;13.90;99.90
37528;DHT22;23372;52.050;4.810;2022-09-24T04:32:32;14.00;99.90
37528;DHT22;23372;52.050;4.810;2022-09-24T04:34:57;13.90;99.90
37528;DHT22;23372;52.050;4.810;2022-09-24T04:37:23;14.00;99.90
37528;DHT22;23372;52.050;4.810;2022-09-24T04:39:49;14.00;99.90
37528;DHT22;23372;52.050;4.810;2022-09-24T04:42:15;14.00;99.90
37528;DHT22;23372;52.050;4.810;2022-09-24T04:44:41;14.10;99.90
37528;DHT22;23372;52.050;4.810;2022-09-24T04:47:10;14.10;99.90
37528;DHT22;23372;52.050;4.810;2022-09-24T04:49:35;14.00;99.90
37528;DHT22;23372;52.050;4.810;2022-09-24T04:52:01;14.00;99.90
37528;DHT22;23372;52.050;4.810;2022-09-24T04:54:27;14.00;99.90
37528;DHT22;23372;52.050;4.810;2022-09-24T04:56:53;14.00;99.90
37528;DHT22;23372;52.050;4.810;2022-09-24T04:59:20;14.10;99.90
37528;DHT22;23372;52.050;4.810;2022-09-24T05:01:46;14.10;99.90
37528;DHT22;23372;52.050;4.810;2022-09-24T05:04:11;14.00;99.90
37528;DHT22;23372;52.050;4.810;2022-09-24T05:06:37;14.00;99.90
37528;DHT22;23372;52.050;4.810;2022-09-24T05:09:02;14.00;99.90
37528;DHT22;23372;52.050;4.810;2022-09-24T05:11:28;14.00;99.90
37528;DHT22;23372;52.050;4.810;2022-09-24T05:13:53;14.00;99.90
37528;DHT22;23372;52.050;4.810;2022-09-24T05:16:19;14.10;99.90
37528;DHT22;23372;52.050;4.810;2022-09-24T05:18:44;14.10;99.90
37528;DHT22;23372;52.050;4.810;2022-09-24T05:21:10;14.10;99.90
37528;DHT22;23372;52.050;4.810;2022-09-24T05:23:35;14.00;99.90
37528;DHT22;23372;52.050;4.810;2022-09-24T05:26:01;14.00;99.90
37528;DHT22;23372;52.050;4.810;2022-09-24T05:28:45;14.00;99.90
37528;DHT22;23372;52.050;4.810;2022-09-24T05:31:11;14.10;99.90
37528;DHT22;23372;52.050;4.810;2022-09-24T05:33:36;14.00;99.90
37528;DHT22;23372;52.050;4.810;2022-09-24T05:36:02;14.00;99.90
37528;DHT22;23372;52.050;4.810;2022-09-24T05:38:29;14.10;99.90
37528;DHT22;23372;52.050;4.810;2022-09-24T05:40:54;14.10;99.90
37528;DHT22;23372;52.050;4.810;2022-09-24T05:43:20;13.90;99.90
37528;DHT22;23372;52.050;4.810;2022-09-24T05:45:46;14.00;99.90
37528;DHT22;23372;52.050;4.810;2022-09-24T05:48:13;14.00;99.90
37528;DHT22;23372;52.050;4.810;2022-09-24T05:50:38;14.00;99.90
37528;DHT22;23372;52.050;4.810;2022-09-24T05:53:04;14.00;99.90
37528;DHT22;23372;52.050;4.810;2022-09-24T05:55:30;14.00;99.90
37528;DHT22;23372;52.050;4.810;2022-09-24T05:58:02;14.00;99.90
37528;DHT22;23372;52.050;4.810;2022-09-24T06:00:27;14.10;99.90
37528;DHT22;23372;52.050;4.810;2022-09-24T06:02:53;14.00;99.90
37528;DHT22;23372;52.050;4.810;2022-09-24T06:05:18;14.00;99.90
37528;DHT22;23372;52.050;4.810;2022-09-24T06:07:43;14.00;99.90
37528;DHT22;23372;52.050;4.810;2022-09-24T06:10:09;14.10;99.90
37528;DHT22;23372;52.050;4.810;2022-09-24T06:12:35;14.00;99.90
37528;DHT22;23372;52.050;4.810;2022-09-24T06:15:02;14.00;99.90
37528;DHT22;23372;52.050;4.810;2022-09-24T06:17:27;14.00;99.90
37528;DHT22;23372;52.050;4.810;2022-09-24T06:19:53;14.10;99.90
37528;DHT22;23372;52.050;4.810;2022-09-24T06:22:19;14.10;99.90
37528;DHT22;23372;52.050;4.810;2022-09-24T06:24:45;14.00;99.90
37528;DHT22;23372;52.050;4.810;2022-09-24T06:27:11;14.10;99.90
37528;DHT22;23372;52.050;4.810;2022-09-24T06:29:36;14.10;99.90
37528;DHT22;23372;52.050;4.810;2022-09-24T06:32:02;14.00;99.90
37528;DHT22;23372;52.050;4.810;2022-09-24T06:34:28;14.20;99.90
37528;DHT22;23372;52.050;4.810;2022-09-24T06:36:54;14.20;99.90
37528;DHT22;23372;52.050;4.810;2022-09-24T06:39:22;14.20;99.90
37528;DHT22;23372;52.050;4.810;2022-09-24T06:41:47;14.20;99.90
37528;DHT22;23372;52.050;4.810;2022-09-24T06:44:14;14.20;99.90
37528;DHT22;23372;52.050;4.810;2022-09-24T06:46:41;14.30;99.90
37528;DHT22;23372;52.050;4.810;2022-09-24T06:49:07;14.20;99.90
37528;DHT22;23372;52.050;4.810;2022-09-24T06:51:32;14.30;99.90
37528;DHT22;23372;52.050;4.810;2022-09-24T06:53:58;14.30;99.90
37528;DHT22;23372;52.050;4.810;2022-09-24T06:56:23;14.30;99.90
37528;DHT22;23372;52.050;4.810;2022-09-24T06:58:49;14.30;99.90
37528;DHT22;23372;52.050;4.810;2022-09-24T07:01:14;14.40;99.90
37528;DHT22;23372;52.050;4.810;2022-09-24T07:03:40;14.30;99.90
37528;DHT22;23372;52.050;4.810;2022-09-24T07:06:05;14.30;99.90
37528;DHT22;23372;52.050;4.810;2022-09-24T07:08:31;14.20;99.90
37528;DHT22;23372;52.050;4.810;2022-09-24T07:10:57;14.30;99.90
37528;DHT22;23372;52.050;4.810;2022-09-24T07:13:24;14.30;99.90
37528;DHT22;23372;52.050;4.810;2022-09-24T07:15:50;14.30;99.90
37528;DHT22;23372;52.050;4.810;2022-09-24T07:18:18;14.30;99.90
37528;DHT22;23372;52.050;4.810;2022-09-24T07:20:49;14.30;99.90
37528;DHT22;23372;52.050;4.810;2022-09-24T07:23:15;14.20;99.90
37528;DHT22;23372;52.050;4.810;2022-09-24T07:25:42;14.20;99.90
37528;DHT22;23372;52.050;4.810;2022-09-24T07:28:11;14.20;99.90
37528;DHT22;23372;52.050;4.810;2022-09-24T07:30:37;14.20;99.90
37528;DHT22;23372;52.050;4.810;2022-09-24T07:33:04;14.10;99.90
37528;DHT22;23372;52.050;4.810;2022-09-24T07:35:30;14.10;99.90
37528;DHT22;23372;52.050;4.810;2022-09-24T07:40:22;14.00;99.90
37528;DHT22;23372;52.050;4.810;2022-09-24T07:42:48;14.10;99.90
37528;DHT22;23372;52.050;4.810;2022-09-24T07:45:14;14.10;99.90
37528;DHT22;23372;52.050;4.810;2022-09-24T07:47:41;14.10;99.90
37528;DHT22;23372;52.050;4.810;2022-09-24T07:50:07;14.10;99.90
37528;DHT22;23372;52.050;4.810;2022-09-24T07:52:33;14.10;99.90
37528;DHT22;23372;52.050;4.810;2022-09-24T07:54:58;14.10;99.90
37528;DHT22;23372;52.050;4.810;2022-09-24T07:57:24;14.10;99.90
37528;DHT22;23372;52.050;4.810;2022-09-24T07:59:51;14.30;99.90
37528;DHT22;23372;52.050;4.810;2022-09-24T08:02:18;14.20;99.90
37528;DHT22;23372;52.050;4.810;2022-09-24T08:04:43;14.20;99.90
37528;DHT22;23372;52.050;4.810;2022-09-24T08:07:10;14.20;99.90
37528;DHT22;23372;52.050;4.810;2022-09-24T08:09:36;14.20;99.90
37528;DHT22;23372;52.050;4.810;2022-09-24T08:12:01;14.30;99.90
37528;DHT22;23372;52.050;4.810;2022-09-24T08:14:27;14.30;99.90
37528;DHT22;23372;52.050;4.810;2022-09-24T08:16:52;14.30;99.90
37528;DHT22;23372;52.050;4.810;2022-09-24T08:19:18;14.30;99.90
37528;DHT22;23372;52.050;4.810;2022-09-24T08:21:43;14.10;99.90
37528;DHT22;23372;52.050;4.810;2022-09-24T08:24:09;14.10;99.90
37528;DHT22;23372;52.050;4.810;2022-09-24T08:26:34;14.10;99.90
37528;DHT22;23372;52.050;4.810;2022-09-24T08:29:00;14.00;99.90
37528;DHT22;23372;52.050;4.810;2022-09-24T08:31:25;14.00;99.90
37528;DHT22;23372;52.050;4.810;2022-09-24T08:33:51;14.10;99.90
37528;DHT22;23372;52.050;4.810;2022-09-24T08:36:17;14.00;99.90
37528;DHT22;23372;52.050;4.810;2022-09-24T08:38:43;14.00;99.90
37528;DHT22;23372;52.050;4.810;2022-09-24T08:46:11;14.00;99.90
37528;DHT22;23372;52.050;4.810;2022-09-24T08:48:58;14.00;99.90
37528;DHT22;23372;52.050;4.810;2022-09-24T08:51:25;14.10;99.90
37528;DHT22;23372;52.050;4.810;2022-09-24T08:54:10;14.00;99.90
37528;DHT22;23372;52.050;4.810;2022-09-24T08:56:40;14.00;99.90
37528;DHT22;23372;52.050;4.810;2022-09-24T08:59:25;14.10;99.90
37528;DHT22;23372;52.050;4.810;2022-09-24T09:02:10;14.10;99.90
37528;DHT22;23372;52.050;4.810;2022-09-24T09:05:14;14.10;99.90
37528;DHT22;23372;52.050;4.810;2022-09-24T09:10:15;14.10;99.90
37528;DHT22;23372;52.050;4.810;2022-09-24T09:12:46;14.20;99.90
37528;DHT22;23372;52.050;4.810;2022-09-24T09:15:17;14.20;99.90
37528;DHT22;23372;52.050;4.810;2022-09-24T09:18:05;14.20;99.90
37528;DHT22;23372;52.050;4.810;2022-09-24T09:20:41;14.10;99.90
37528;DHT22;23372;52.050;4.810;2022-09-24T09:23:21;14.10;99.90
37528;DHT22;23372;52.050;4.810;2022-09-24T09:25:58;14.00;99.90
37528;DHT22;23372;52.050;4.810;2022-09-24T09:28:26;14.00;99.90
37528;DHT22;23372;52.050;4.810;2022-09-24T09:36:28;14.20;99.90
37528;DHT22;23372;52.050;4.810;2022-09-24T09:39:34;14.10;99.90
37528;DHT22;23372;52.050;4.810;2022-09-24T09:42:14;14.30;99.90
37528;DHT22;23372;52.050;4.810;2022-09-24T09:44:42;14.20;99.90
37528;DHT22;23372;52.050;4.810;2022-09-24T09:47:24;14.20;99.90
37528;DHT22;23372;52.050;4.810;2022-09-24T09:49:54;14.40;99.90
37528;DHT22;23372;52.050;4.810;2022-09-24T09:52:23;14.40;99.90
37528;DHT22;23372;52.050;4.810;2022-09-24T09:54:51;14.40;99.90
37528;DHT22;23372;52.050;4.810;2022-09-24T09:57:19;14.40;99.90
37528;DHT22;23372;52.050;4.810;2022-09-24T09:59:51;14.40;99.90
37528;DHT22;23372;52.050;4.810;2022-09-24T10:02:24;14.50;99.90
37528;DHT22;23372;52.050;4.810;2022-09-24T10:05:03;14.50;99.90
37528;DHT22;23372;52.050;4.810;2022-09-24T10:07:30;14.50;99.90
37528;DHT22;23372;52.050;4.810;2022-09-24T10:10:02;14.50;99.90
37528;DHT22;23372;52.050;4.810;2022-09-24T10:12:29;14.60;99.90
37528;DHT22;23372;52.050;4.810;2022-09-24T10:15:03;14.60;99.90
37528;DHT22;23372;52.050;4.810;2022-09-24T10:17:37;14.50;99.90
37528;DHT22;23372;52.050;4.810;2022-09-24T10:20:15;14.60;99.90
37528;DHT22;23372;52.050;4.810;2022-09-24T10:22:50;14.60;99.90
37528;DHT22;23372;52.050;4.810;2022-09-24T10:25:19;14.70;99.90
37528;DHT22;23372;52.050;4.810;2022-09-24T10:27:48;14.70;99.90
37528;DHT22;23372;52.050;4.810;2022-09-24T10:30:16;14.60;99.90
37528;DHT22;23372;52.050;4.810;2022-09-24T10:33:01;14.60;99.90
37528;DHT22;23372;52.050;4.810;2022-09-24T10:35:33;14.60;99.90
37528;DHT22;23372;52.050;4.810;2022-09-24T10:38:02;14.50;99.90
37528;DHT22;23372;52.050;4.810;2022-09-24T10:40:37;14.60;99.90
37528;DHT22;23372;52.050;4.810;2022-09-24T10:43:04;14.60;99.90
37528;DHT22;23372;52.050;4.810;2022-09-24T10:48:43;14.50;99.90
37528;DHT22;23372;52.050;4.810;2022-09-24T10:51:35;14.60;99.90
37528;DHT22;23372;52.050;4.810;2022-09-24T10:56:59;14.50;99.90
37528;DHT22;23372;52.050;4.810;2022-09-24T11:02:42;14.60;99.90
37528;DHT22;23372;52.050;4.810;2022-09-24T11:05:22;14.50;99.90
37528;DHT22;23372;52.050;4.810;2022-09-24T11:08:12;14.40;99.90
37528;DHT22;23372;52.050;4.810;2022-09-24T11:11:00;14.50;99.90
37528;DHT22;23372;52.050;4.810;2022-09-24T11:16:44;14.50;99.90
37528;DHT22;23372;52.050;4.810;2022-09-24T11:19:17;14.60;99.90
37528;DHT22;23372;52.050;4.810;2022-09-24T11:22:14;14.50;99.90
37528;DHT22;23372;52.050;4.810;2022-09-24T11:30:22;14.60;99.90
37528;DHT22;23372;52.050;4.810;2022-09-24T11:33:27;14.70;99.90
37528;DHT22;23372;52.050;4.810;2022-09-24T11:38:45;14.90;99.90
37528;DHT22;23372;52.050;4.810;2022-09-24T11:44:16;14.90;99.90
37528;DHT22;23372;52.050;4.810;2022-09-24T11:49:54;15.00;99.90
37528;DHT22;23372;52.050;4.810;2022-09-24T11:52:38;15.00;99.90
37528;DHT22;23372;52.050;4.810;2022-09-24T12:01:27;15.10;99.90
37528;DHT22;23372;52.050;4.810;2022-09-24T12:03:54;15.20;99.90
37528;DHT22;23372;52.050;4.810;2022-09-24T12:09:27;15.10;99.90
37528;DHT22;23372;52.050;4.810;2022-09-24T12:12:15;15.00;99.90
37528;DHT22;23372;52.050;4.810;2022-09-24T12:14:58;15.00;99.90
37528;DHT22;23372;52.050;4.810;2022-09-24T12:17:53;15.10;99.90
37528;DHT22;23372;52.050;4.810;2022-09-24T12:20:26;15.20;99.90
37528;DHT22;23372;52.050;4.810;2022-09-24T12:23:01;15.20;99.90
37528;DHT22;23372;52.050;4.810;2022-09-24T12:25:30;15.20;99.90
37528;DHT22;23372;52.050;4.810;2022-09-24T12:27:58;15.20;99.90
37528;DHT22;23372;52.050;4.810;2022-09-24T12:30:35;15.20;99.90
37528;DHT22;23372;52.050;4.810;2022-09-24T12:33:38;15.20;99.90
37528;DHT22;23372;52.050;4.810;2022-09-24T12:36:23;15.20;99.90
37528;DHT22;23372;52.050;4.810;2022-09-24T12:38:55;15.10;99.90
37528;DHT22;23372;52.050;4.810;2022-09-24T12:41:32;15.20;99.90
37528;DHT22;23372;52.050;4.810;2022-09-24T12:49:34;15.20;99.90
37528;DHT22;23372;52.050;4.810;2022-09-24T12:52:17;15.20;99.90
37528;DHT22;23372;52.050;4.810;2022-09-24T12:54:44;15.20;99.90
37528;DHT22;23372;52.050;4.810;2022-09-24T12:57:19;15.30;99.90
37528;DHT22;23372;52.050;4.810;2022-09-24T12:59:50;15.20;99.90
37528;DHT22;23372;52.050;4.810;2022-09-24T13:02:22;15.30;99.90
37528;DHT22;23372;52.050;4.810;2022-09-24T13:05:13;15.20;99.90
37528;DHT22;23372;52.050;4.810;2022-09-24T13:07:42;15.20;99.90
37528;DHT22;23372;52.050;4.810;2022-09-24T13:12:39;15.30;99.90
37528;DHT22;23372;52.050;4.810;2022-09-24T13:15:06;15.30;99.90
37528;DHT22;23372;52.050;4.810;2022-09-24T13:17:34;15.30;99.90
37528;DHT22;23372;52.050;4.810;2022-09-24T13:20:05;15.30;99.90
37528;DHT22;23372;52.050;4.810;2022-09-24T13:22:34;15.30;99.90
37528;DHT22;23372;52.050;4.810;2022-09-24T13:27:40;15.10;99.90
37528;DHT22;23372;52.050;4.810;2022-09-24T13:30:19;15.30;99.90
37528;DHT22;23372;52.050;4.810;2022-09-24T13:33:02;15.20;99.90
37528;DHT22;23372;52.050;4.810;2022-09-24T13:35:34;15.30;99.90
37528;DHT22;23372;52.050;4.810;2022-09-24T13:38:14;15.40;99.90
37528;DHT22;23372;52.050;4.810;2022-09-24T13:40:47;15.30;99.90
37528;DHT22;23372;52.050;4.810;2022-09-24T13:43:18;15.40;99.90
37528;DHT22;23372;52.050;4.810;2022-09-24T13:45:50;15.30;99.90
37528;DHT22;23372;52.050;4.810;2022-09-24T13:48:39;15.40;99.90
37528;DHT22;23372;52.050;4.810;2022-09-24T13:51:10;15.40;99.90
37528;DHT22;23372;52.050;4.810;2022-09-24T13:53:48;15.40;99.90
37528;DHT22;23372;52.050;4.810;2022-09-24T13:56:17;15.40;99.90
37528;DHT22;23372;52.050;4.810;2022-09-24T13:58:43;15.40;99.90
37528;DHT22;23372;52.050;4.810;2022-09-24T14:01:18;15.40;99.90
37528;DHT22;23372;52.050;4.810;2022-09-24T14:03:52;15.30;99.90
37528;DHT22;23372;52.050;4.810;2022-09-24T14:06:21;15.30;99.90
37528;DHT22;23372;52.050;4.810;2022-09-24T14:08:48;15.40;99.90
37528;DHT22;23372;52.050;4.810;2022-09-24T14:11:21;15.30;99.90
37528;DHT22;23372;52.050;4.810;2022-09-24T14:13:50;15.20;99.90
37528;DHT22;23372;52.050;4.810;2022-09-24T14:16:26;15.20;99.90
37528;DHT22;23372;52.050;4.810;2022-09-24T14:19:02;15.20;99.90
37528;DHT22;23372;52.050;4.810;2022-09-24T14:21:35;15.20;99.90
37528;DHT22;23372;52.050;4.810;2022-09-24T14:24:23;15.20;99.90
37528;DHT22;23372;52.050;4.810;2022-09-24T14:26:59;15.20;99.90
37528;DHT22;23372;52.050;4.810;2022-09-24T14:29:48;15.30;99.90
37528;DHT22;23372;52.050;4.810;2022-09-24T14:32:21;15.20;99.90
37528;DHT22;23372;52.050;4.810;2022-09-24T14:34:52;15.20;99.90
37528;DHT22;23372;52.050;4.810;2022-09-24T14:37:21;15.20;99.90
37528;DHT22;23372;52.050;4.810;2022-09-24T14:39:50;15.20;99.90
37528;DHT22;23372;52.050;4.810;2022-09-24T14:42:26;15.20;99.90
37528;DHT22;23372;52.050;4.810;2022-09-24T14:44:54;15.20;99.90
37528;DHT22;23372;52.050;4.810;2022-09-24T14:47:31;15.20;99.90
37528;DHT22;23372;52.050;4.810;2022-09-24T14:49:58;15.30;99.90
37528;DHT22;23372;52.050;4.810;2022-09-24T14:52:34;15.30;99.90
37528;DHT22;23372;52.050;4.810;2022-09-24T14:55:40;15.30;99.90
37528;DHT22;23372;52.050;4.810;2022-09-24T15:01:02;15.30;99.90
37528;DHT22;23372;52.050;4.810;2022-09-24T15:06:20;15.30;99.90
37528;DHT22;23372;52.050;4.810;2022-09-24T15:09:14;15.40;99.90
37528;DHT22;23372;52.050;4.810;2022-09-24T15:11:44;15.40;99.90
37528;DHT22;23372;52.050;4.810;2022-09-24T15:14:17;15.40;99.90
37528;DHT22;23372;52.050;4.810;2022-09-24T15:16:49;15.40;99.90
37528;DHT22;23372;52.050;4.810;2022-09-24T15:19:23;15.40;99.90
37528;DHT22;23372;52.050;4.810;2022-09-24T15:21:54;15.50;99.90
37528;DHT22;23372;52.050;4.810;2022-09-24T15:24:21;15.40;99.90
37528;DHT22;23372;52.050;4.810;2022-09-24T15:27:15;15.40;99.90
37528;DHT22;23372;52.050;4.810;2022-09-24T15:29:41;15.40;99.90
37528;DHT22;23372;52.050;4.810;2022-09-24T15:32:26;15.40;99.90
37528;DHT22;23372;52.050;4.810;2022-09-24T15:34:53;15.50;99.90
37528;DHT22;23372;52.050;4.810;2022-09-24T15:37:22;15.50;99.90
37528;DHT22;23372;52.050;4.810;2022-09-24T15:39:48;15.50;99.90
37528;DHT22;23372;52.050;4.810;2022-09-24T15:42:16;15.50;99.90
37528;DHT22;23372;52.050;4.810;2022-09-24T15:44:42;15.50;99.90
37528;DHT22;23372;52.050;4.810;2022-09-24T15:47:09;15.60;99.90
37528;DHT22;23372;52.050;4.810;2022-09-24T15:49:35;15.40;99.90
37528;DHT22;23372;52.050;4.810;2022-09-24T15:52:22;15.40;99.90
37528;DHT22;23372;52.050;4.810;2022-09-24T15:54:52;15.40;99.90
37528;DHT22;23372;52.050;4.810;2022-09-24T15:57:18;15.30;99.90
37528;DHT22;23372;52.050;4.810;2022-09-24T15:59:43;15.30;99.90
37528;DHT22;23372;52.050;4.810;2022-09-24T16:02:30;15.30;99.90
37528;DHT22;23372;52.050;4.810;2022-09-24T16:04:56;15.20;99.90
37528;DHT22;23372;52.050;4.810;2022-09-24T16:07:26;15.20;99.90
37528;DHT22;23372;52.050;4.810;2022-09-24T16:09:52;15.20;99.90
37528;DHT22;23372;52.050;4.810;2022-09-24T16:12:19;15.20;99.90
37528;DHT22;23372;52.050;4.810;2022-09-24T16:14:45;15.10;99.90
37528;DHT22;23372;52.050;4.810;2022-09-24T16:17:11;15.10;99.90
37528;DHT22;23372;52.050;4.810;2022-09-24T16:19:37;15.10;99.90
37528;DHT22;23372;52.050;4.810;2022-09-24T16:22:03;15.00;99.90
37528;DHT22;23372;52.050;4.810;2022-09-24T16:24:32;15.00;99.90
37528;DHT22;23372;52.050;4.810;2022-09-24T16:26:58;14.90;99.90
37528;DHT22;23372;52.050;4.810;2022-09-24T16:29:24;15.00;99.90
37528;DHT22;23372;52.050;4.810;2022-09-24T16:31:49;15.00;99.90
37528;DHT22;23372;52.050;4.810;2022-09-24T16:34:15;15.10;99.90
37528;DHT22;23372;52.050;4.810;2022-09-24T16:36:40;15.10;99.90
37528;DHT22;23372;52.050;4.810;2022-09-24T16:39:06;15.10;99.90
37528;DHT22;23372;52.050;4.810;2022-09-24T16:41:31;15.10;99.90
37528;DHT22;23372;52.050;4.810;2022-09-24T16:44:02;15.10;99.90
37528;DHT22;23372;52.050;4.810;2022-09-24T16:46:28;15.10;99.90
37528;DHT22;23372;52.050;4.810;2022-09-24T16:48:54;15.10;99.90
37528;DHT22;23372;52.050;4.810;2022-09-24T16:51:19;15.10;99.90
37528;DHT22;23372;52.050;4.810;2022-09-24T16:53:45;15.00;99.90
37528;DHT22;23372;52.050;4.810;2022-09-24T16:56:13;15.00;99.90
37528;DHT22;23372;52.050;4.810;2022-09-24T16:58:43;15.00;99.90
37528;DHT22;23372;52.050;4.810;2022-09-24T17:01:11;15.00;99.90
37528;DHT22;23372;52.050;4.810;2022-09-24T17:03:38;14.90;99.90
37528;DHT22;23372;52.050;4.810;2022-09-24T17:06:04;14.80;99.90
37528;DHT22;23372;52.050;4.810;2022-09-24T17:08:35;14.80;99.90
37528;DHT22;23372;52.050;4.810;2022-09-24T17:11:20;14.70;99.90
37528;DHT22;23372;52.050;4.810;2022-09-24T17:13:46;14.60;99.90